sensor_id;sensor_type;location;lat;lon;timestamp;temperature;humidity
10848;DHT22;5477;48.806;9.154;2023-06-10T00:01:15;16.70;99.90
10848;DHT22;5477;48.806;9.154;2023-06-10T00:03:44;16.60;99.90
10848;DHT22;5477;48.806;9.154;2023-06-10T00:06:13;16.60;99.90
10848;DHT22;5477;48.806;9.154;2023-06-10T00:08:41;16.50;99.90
10848;DHT22;5477;48.806;9.154;2023-06-10T00:11:09;16.50;99.90
10848;DHT22;5477;48.806;9.154;2023-06-10T00:13:38;16.50;99.90
10848;DHT22;5477;48.806;9.154;2023-06-10T00:16:07;16.50;99.90
10848;DHT22;5477;48.806;9.154;2023-06-10T00:18:36;16.50;99.90
10848;DHT22;5477;48.806;9.154;2023-06-10T00:21:05;16.50;99.90
10848;DHT22;5477;48.806;9.154;2023-06-10T00:23:33;16.50;99.90
10848;DHT22;5477;48.806;9.154;2023-06-10T00:26:04;16.50;99.90
10848;DHT22;5477;48.806;9.154;2023-06-10T00:28:35;16.50;99.90
10848;DHT22;5477;48.806;9.154;2023-06-10T00:31:03;16.50;99.90
10848;DHT22;5477;48.806;9.154;2023-06-10T00:33:32;16.50;99.90
10848;DHT22;5477;48.806;9.154;2023-06-10T00:36:02;16.50;99.90
10848;DHT22;5477;48.806;9.154;2023-06-10T00:38:30;16.40;99.90
10848;DHT22;5477;48.806;9.154;2023-06-10T00:40:58;16.40;99.90
10848;DHT22;5477;48.806;9.154;2023-06-10T00:43:26;16.40;99.90
10848;DHT22;5477;48.806;9.154;2023-06-10T00:45:54;16.40;99.90
10848;DHT22;5477;48.806;9.154;2023-06-10T00:48:23;16.30;99.90
10848;DHT22;5477;48.806;9.154;2023-06-10T00:50:52;16.20;99.90
10848;DHT22;5477;48.806;9.154;2023-06-10T00:53:23;16.10;99.90
10848;DHT22;5477;48.806;9.154;2023-06-10T00:55:51;16.10;99.90
10848;DHT22;5477;48.806;9.154;2023-06-10T00:58:23;16.00;99.90
10848;DHT22;5477;48.806;9.154;2023-06-10T01:00:52;16.00;99.90
10848;DHT22;5477;48.806;9.154;2023-06-10T01:03:20;15.90;99.90
10848;DHT22;5477;48.806;9.154;2023-06-10T01:05:53;15.90;99.90
10848;DHT22;5477;48.806;9.154;2023-06-10T01:08:32;15.90;99.90
10848;DHT22;5477;48.806;9.154;2023-06-10T01:11:03;15.70;99.90
10848;DHT22;5477;48.806;9.154;2023-06-10T01:13:33;15.70;99.90
10848;DHT22;5477;48.806;9.154;2023-06-10T01:16:03;15.80;99.90
10848;DHT22;5477;48.806;9.154;2023-06-10T01:18:31;15.80;99.90
10848;DHT22;5477;48.806;9.154;2023-06-10T01:21:00;15.70;99.90
10848;DHT22;5477;48.806;9.154;2023-06-10T01:23:29;15.70;99.90
10848;DHT22;5477;48.806;9.154;2023-06-10T01:26:02;15.70;99.90
10848;DHT22;5477;48.806;9.154;2023-06-10T01:28:36;15.70;99.90
10848;DHT22;5477;48.806;9.154;2023-06-10T01:31:09;15.70;99.90
10848;DHT22;5477;48.806;9.154;2023-06-10T01:33:43;15.70;99.90
10848;DHT22;5477;48.806;9.154;2023-06-10T01:36:15;15.60;99.90
10848;DHT22;5477;48.806;9.154;2023-06-10T01:38:47;15.60;99.90
10848;DHT22;5477;48.806;9.154;2023-06-10T01:41:17;15.60;99.90
10848;DHT22;5477;48.806;9.154;2023-06-10T01:43:45;15.60;99.90
10848;DHT22;5477;48.806;9.154;2023-06-10T01:46:14;15.60;99.90
10848;DHT22;5477;48.806;9.154;2023-06-10T01:48:42;15.50;99.90
10848;DHT22;5477;48.806;9.154;2023-06-10T01:51:10;15.50;99.90
10848;DHT22;5477;48.806;9.154;2023-06-10T01:53:38;15.50;99.90
10848;DHT22;5477;48.806;9.154;2023-06-10T01:56:08;15.50;99.90
10848;DHT22;5477;48.806;9.154;2023-06-10T01:58:36;15.40;99.90
10848;DHT22;5477;48.806;9.154;2023-06-10T02:01:05;15.40;99.90
10848;DHT22;5477;48.806;9.154;2023-06-10T02:03:36;15.40;99.90
10848;DHT22;5477;48.806;9.154;2023-06-10T02:06:04;15.40;99.90
10848;DHT22;5477;48.806;9.154;2023-06-10T02:08:32;15.30;99.90
10848;DHT22;5477;48.806;9.154;2023-06-10T02:11:00;15.30;99.90
10848;DHT22;5477;48.806;9.154;2023-06-10T02:13:30;15.30;99.90
10848;DHT22;5477;48.806;9.154;2023-06-10T02:15:58;15.20;99.90
10848;DHT22;5477;48.806;9.154;2023-06-10T02:18:28;15.10;99.90
10848;DHT22;5477;48.806;9.154;2023-06-10T02:20:56;15.10;99.90
10848;DHT22;5477;48.806;9.154;2023-06-10T02:23:26;15.00;99.90
10848;DHT22;5477;48.806;9.154;2023-06-10T02:25:54;14.90;99.90
10848;DHT22;5477;48.806;9.154;2023-06-10T02:28:24;14.80;99.90
10848;DHT22;5477;48.806;9.154;2023-06-10T02:30:53;14.80;99.90
10848;DHT22;5477;48.806;9.154;2023-06-10T02:33:24;14.80;99.90
10848;DHT22;5477;48.806;9.154;2023-06-10T02:35:55;14.80;99.90
10848;DHT22;5477;48.806;9.154;2023-06-10T02:38:25;14.80;99.90
10848;DHT22;5477;48.806;9.154;2023-06-10T02:40:54;14.80;99.90
10848;DHT22;5477;48.806;9.154;2023-06-10T02:43:23;14.80;99.90
10848;DHT22;5477;48.806;9.154;2023-06-10T02:45:51;14.90;99.90
10848;DHT22;5477;48.806;9.154;2023-06-10T02:48:24;14.90;99.90
10848;DHT22;5477;48.806;9.154;2023-06-10T02:50:52;14.80;99.90
10848;DHT22;5477;48.806;9.154;2023-06-10T02:53:27;14.80;99.90
10848;DHT22;5477;48.806;9.154;2023-06-10T02:56:02;14.80;99.90
10848;DHT22;5477;48.806;9.154;2023-06-10T02:58:31;14.70;99.90
10848;DHT22;5477;48.806;9.154;2023-06-10T03:00:59;14.70;99.90
10848;DHT22;5477;48.806;9.154;2023-06-10T03:03:35;14.70;99.90
10848;DHT22;5477;48.806;9.154;2023-06-10T03:06:11;14.60;99.90
10848;DHT22;5477;48.806;9.154;2023-06-10T03:08:40;14.50;99.90
10848;DHT22;5477;48.806;9.154;2023-06-10T03:11:13;14.50;99.90
10848;DHT22;5477;48.806;9.154;2023-06-10T03:13:42;14.50;99.90
10848;DHT22;5477;48.806;9.154;2023-06-10T03:16:13;14.50;99.90
10848;DHT22;5477;48.806;9.154;2023-06-10T03:18:43;14.50;99.90
10848;DHT22;5477;48.806;9.154;2023-06-10T03:21:11;14.60;99.90
10848;DHT22;5477;48.806;9.154;2023-06-10T03:23:40;14.60;99.90
10848;DHT22;5477;48.806;9.154;2023-06-10T03:26:08;14.60;99.90
10848;DHT22;5477;48.806;9.154;2023-06-10T03:28:39;14.60;99.90
10848;DHT22;5477;48.806;9.154;2023-06-10T03:31:08;14.50;99.90
10848;DHT22;5477;48.806;9.154;2023-06-10T03:33:36;14.40;99.90
10848;DHT22;5477;48.806;9.154;2023-06-10T03:36:07;14.50;99.90
10848;DHT22;5477;48.806;9.154;2023-06-10T03:38:36;14.40;99.90
10848;DHT22;5477;48.806;9.154;2023-06-10T03:41:05;14.40;99.90
10848;DHT22;5477;48.806;9.154;2023-06-10T03:43:34;14.40;99.90
10848;DHT22;5477;48.806;9.154;2023-06-10T03:46:02;14.40;99.90
10848;DHT22;5477;48.806;9.154;2023-06-10T03:48:32;14.40;99.90
10848;DHT22;5477;48.806;9.154;2023-06-10T03:51:00;14.40;99.90
10848;DHT22;5477;48.806;9.154;2023-06-10T03:53:29;14.40;99.90
10848;DHT22;5477;48.806;9.154;2023-06-10T03:55:57;14.40;99.90
10848;DHT22;5477;48.806;9.154;2023-06-10T03:58:26;14.50;99.90
10848;DHT22;5477;48.806;9.154;2023-06-10T04:00:54;14.50;99.90
10848;DHT22;5477;48.806;9.154;2023-06-10T04:03:31;14.50;99.90
10848;DHT22;5477;48.806;9.154;2023-06-10T04:06:00;14.50;99.90
10848;DHT22;5477;48.806;9.154;2023-06-10T04:08:29;14.50;99.90
10848;DHT22;5477;48.806;9.154;2023-06-10T04:10:59;14.50;99.90
10848;DHT22;5477;48.806;9.154;2023-06-10T04:13:27;14.50;99.90
10848;DHT22;5477;48.806;9.154;2023-06-10T04:15:58;14.60;99.90
10848;DHT22;5477;48.806;9.154;2023-06-10T04:18:26;14.70;99.90
10848;DHT22;5477;48.806;9.154;2023-06-10T04:20:57;14.80;99.90
10848;DHT22;5477;48.806;9.154;2023-06-10T04:23:25;14.90;99.90
10848;DHT22;5477;48.806;9.154;2023-06-10T04:25:55;14.90;99.90
10848;DHT22;5477;48.806;9.154;2023-06-10T04:28:24;15.00;99.90
10848;DHT22;5477;48.806;9.154;2023-06-10T04:30:53;15.00;99.90
10848;DHT22;5477;48.806;9.154;2023-06-10T04:33:21;15.10;99.90
10848;DHT22;5477;48.806;9.154;2023-06-10T04:35:50;15.10;99.90
10848;DHT22;5477;48.806;9.154;2023-06-10T04:38:21;15.20;99.90
10848;DHT22;5477;48.806;9.154;2023-06-10T04:40:49;15.20;99.90
10848;DHT22;5477;48.806;9.154;2023-06-10T04:43:20;15.40;99.90
10848;DHT22;5477;48.806;9.154;2023-06-10T04:45:48;15.50;99.90
10848;DHT22;5477;48.806;9.154;2023-06-10T04:48:16;15.60;99.90
10848;DHT22;5477;48.806;9.154;2023-06-10T04:50:44;15.70;99.90
10848;DHT22;5477;48.806;9.154;2023-06-10T04:53:12;15.80;99.90
10848;DHT22;5477;48.806;9.154;2023-06-10T04:55:45;16.00;99.90
10848;DHT22;5477;48.806;9.154;2023-06-10T04:58:13;16.10;99.90
10848;DHT22;5477;48.806;9.154;2023-06-10T05:00:43;16.20;99.90
10848;DHT22;5477;48.806;9.154;2023-06-10T05:03:11;16.40;99.90
10848;DHT22;5477;48.806;9.154;2023-06-10T05:05:39;16.50;99.90
10848;DHT22;5477;48.806;9.154;2023-06-10T05:08:07;16.60;99.90
10848;DHT22;5477;48.806;9.154;2023-06-10T05:10:35;16.80;99.90
10848;DHT22;5477;48.806;9.154;2023-06-10T05:13:03;16.90;99.90
10848;DHT22;5477;48.806;9.154;2023-06-10T05:15:31;17.00;99.90
10848;DHT22;5477;48.806;9.154;2023-06-10T05:18:01;17.20;99.90
10848;DHT22;5477;48.806;9.154;2023-06-10T05:20:30;17.40;99.90
10848;DHT22;5477;48.806;9.154;2023-06-10T05:22:58;17.60;99.90
10848;DHT22;5477;48.806;9.154;2023-06-10T05:25:28;17.80;99.90
10848;DHT22;5477;48.806;9.154;2023-06-10T05:27:56;17.90;99.90
10848;DHT22;5477;48.806;9.154;2023-06-10T05:30:24;18.10;99.90
10848;DHT22;5477;48.806;9.154;2023-06-10T05:32:53;18.20;99.90
10848;DHT22;5477;48.806;9.154;2023-06-10T05:35:24;18.40;99.90
10848;DHT22;5477;48.806;9.154;2023-06-10T05:37:52;18.60;99.90
10848;DHT22;5477;48.806;9.154;2023-06-10T05:40:20;18.70;99.90
10848;DHT22;5477;48.806;9.154;2023-06-10T05:42:48;18.80;99.90
10848;DHT22;5477;48.806;9.154;2023-06-10T05:45:16;19.00;99.90
10848;DHT22;5477;48.806;9.154;2023-06-10T05:47:44;19.10;99.90
10848;DHT22;5477;48.806;9.154;2023-06-10T05:50:12;19.20;99.90
10848;DHT22;5477;48.806;9.154;2023-06-10T05:52:41;19.40;99.90
10848;DHT22;5477;48.806;9.154;2023-06-10T05:55:10;19.50;99.90
10848;DHT22;5477;48.806;9.154;2023-06-10T05:57:41;19.60;99.90
10848;DHT22;5477;48.806;9.154;2023-06-10T06:00:10;19.70;99.90
10848;DHT22;5477;48.806;9.154;2023-06-10T06:02:38;19.80;99.90
10848;DHT22;5477;48.806;9.154;2023-06-10T06:05:07;19.90;99.90
10848;DHT22;5477;48.806;9.154;2023-06-10T06:07:35;20.10;99.90
10848;DHT22;5477;48.806;9.154;2023-06-10T06:10:06;20.20;99.90
10848;DHT22;5477;48.806;9.154;2023-06-10T06:12:34;20.30;99.90
10848;DHT22;5477;48.806;9.154;2023-06-10T06:15:02;20.40;99.90
10848;DHT22;5477;48.806;9.154;2023-06-10T06:17:31;20.50;99.90
10848;DHT22;5477;48.806;9.154;2023-06-10T06:19:59;20.60;99.90
10848;DHT22;5477;48.806;9.154;2023-06-10T06:22:27;20.80;99.90
10848;DHT22;5477;48.806;9.154;2023-06-10T06:24:55;20.90;99.90
10848;DHT22;5477;48.806;9.154;2023-06-10T06:27:24;20.90;99.90
10848;DHT22;5477;48.806;9.154;2023-06-10T06:29:52;21.00;99.90
10848;DHT22;5477;48.806;9.154;2023-06-10T06:32:20;21.20;99.90
10848;DHT22;5477;48.806;9.154;2023-06-10T06:34:49;21.30;99.90
10848;DHT22;5477;48.806;9.154;2023-06-10T06:37:21;21.40;99.90
10848;DHT22;5477;48.806;9.154;2023-06-10T06:39:55;21.50;99.90
10848;DHT22;5477;48.806;9.154;2023-06-10T06:42:24;21.60;99.90
10848;DHT22;5477;48.806;9.154;2023-06-10T06:45:16;21.70;99.90
10848;DHT22;5477;48.806;9.154;2023-06-10T06:47:44;21.80;99.90
10848;DHT22;5477;48.806;9.154;2023-06-10T06:50:13;21.80;99.90
10848;DHT22;5477;48.806;9.154;2023-06-10T06:52:41;21.90;99.90
10848;DHT22;5477;48.806;9.154;2023-06-10T06:55:09;22.00;99.90
10848;DHT22;5477;48.806;9.154;2023-06-10T06:57:39;22.10;99.90
10848;DHT22;5477;48.806;9.154;2023-06-10T07:00:07;22.20;99.90
10848;DHT22;5477;48.806;9.154;2023-06-10T07:02:36;22.20;99.90
10848;DHT22;5477;48.806;9.154;2023-06-10T07:05:04;22.20;99.90
10848;DHT22;5477;48.806;9.154;2023-06-10T07:07:34;22.30;99.90
10848;DHT22;5477;48.806;9.154;2023-06-10T07:10:02;22.40;99.90
10848;DHT22;5477;48.806;9.154;2023-06-10T07:12:30;22.40;99.90
10848;DHT22;5477;48.806;9.154;2023-06-10T07:15:00;22.50;99.90
10848;DHT22;5477;48.806;9.154;2023-06-10T07:17:28;22.60;99.90
10848;DHT22;5477;48.806;9.154;2023-06-10T07:19:56;22.60;99.90
10848;DHT22;5477;48.806;9.154;2023-06-10T07:22:26;22.60;99.90
10848;DHT22;5477;48.806;9.154;2023-06-10T07:24:54;22.70;99.90
10848;DHT22;5477;48.806;9.154;2023-06-10T07:27:22;22.80;99.90
10848;DHT22;5477;48.806;9.154;2023-06-10T07:29:50;22.90;99.90
10848;DHT22;5477;48.806;9.154;2023-06-10T07:32:20;23.00;99.90
10848;DHT22;5477;48.806;9.154;2023-06-10T07:34:51;23.10;99.90
10848;DHT22;5477;48.806;9.154;2023-06-10T07:37:19;23.10;99.90
10848;DHT22;5477;48.806;9.154;2023-06-10T07:39:47;23.10;99.90
10848;DHT22;5477;48.806;9.154;2023-06-10T07:42:15;23.10;99.90
10848;DHT22;5477;48.806;9.154;2023-06-10T07:44:43;23.10;99.90
10848;DHT22;5477;48.806;9.154;2023-06-10T07:47:11;23.20;99.90
10848;DHT22;5477;48.806;9.154;2023-06-10T07:49:41;23.20;99.90
10848;DHT22;5477;48.806;9.154;2023-06-10T07:52:09;23.30;99.90
10848;DHT22;5477;48.806;9.154;2023-06-10T07:54:37;23.40;99.90
10848;DHT22;5477;48.806;9.154;2023-06-10T07:57:05;23.30;99.90
10848;DHT22;5477;48.806;9.154;2023-06-10T07:59:34;23.30;99.90
10848;DHT22;5477;48.806;9.154;2023-06-10T08:02:02;23.30;99.90
10848;DHT22;5477;48.806;9.154;2023-06-10T08:04:32;23.40;99.90
10848;DHT22;5477;48.806;9.154;2023-06-10T08:07:03;23.40;99.90
10848;DHT22;5477;48.806;9.154;2023-06-10T08:09:32;23.40;99.90
10848;DHT22;5477;48.806;9.154;2023-06-10T08:12:00;23.50;99.90
10848;DHT22;5477;48.806;9.154;2023-06-10T08:14:28;23.60;99.90
10848;DHT22;5477;48.806;9.154;2023-06-10T08:16:56;23.70;99.90
10848;DHT22;5477;48.806;9.154;2023-06-10T08:19:24;23.50;99.90
10848;DHT22;5477;48.806;9.154;2023-06-10T08:21:52;23.50;99.90
10848;DHT22;5477;48.806;9.154;2023-06-10T08:24:22;23.60;99.90
10848;DHT22;5477;48.806;9.154;2023-06-10T08:26:50;23.70;99.90
10848;DHT22;5477;48.806;9.154;2023-06-10T08:29:18;23.80;99.90
10848;DHT22;5477;48.806;9.154;2023-06-10T08:31:46;23.80;99.90
10848;DHT22;5477;48.806;9.154;2023-06-10T08:34:14;23.80;99.90
10848;DHT22;5477;48.806;9.154;2023-06-10T08:36:43;23.80;99.90
10848;DHT22;5477;48.806;9.154;2023-06-10T08:39:11;24.10;99.90
10848;DHT22;5477;48.806;9.154;2023-06-10T08:41:43;24.20;99.90
10848;DHT22;5477;48.806;9.154;2023-06-10T08:44:16;24.30;99.90
10848;DHT22;5477;48.806;9.154;2023-06-10T08:46:46;24.30;99.90
10848;DHT22;5477;48.806;9.154;2023-06-10T08:49:18;24.20;99.90
10848;DHT22;5477;48.806;9.154;2023-06-10T08:51:50;24.30;99.90
10848;DHT22;5477;48.806;9.154;2023-06-10T08:54:21;24.40;99.90
10848;DHT22;5477;48.806;9.154;2023-06-10T08:56:51;24.50;99.90
10848;DHT22;5477;48.806;9.154;2023-06-10T08:59:21;24.70;99.90
10848;DHT22;5477;48.806;9.154;2023-06-10T09:01:50;24.70;99.90
10848;DHT22;5477;48.806;9.154;2023-06-10T09:04:18;24.70;99.90
10848;DHT22;5477;48.806;9.154;2023-06-10T09:06:49;24.70;99.90
10848;DHT22;5477;48.806;9.154;2023-06-10T09:09:18;24.90;99.90
10848;DHT22;5477;48.806;9.154;2023-06-10T09:11:46;24.90;99.90
10848;DHT22;5477;48.806;9.154;2023-06-10T09:14:16;25.00;99.90
10848;DHT22;5477;48.806;9.154;2023-06-10T09:16:44;25.10;99.90
10848;DHT22;5477;48.806;9.154;2023-06-10T09:19:14;25.30;99.90
10848;DHT22;5477;48.806;9.154;2023-06-10T09:21:43;25.40;99.90
10848;DHT22;5477;48.806;9.154;2023-06-10T09:24:11;25.50;99.90
10848;DHT22;5477;48.806;9.154;2023-06-10T09:26:39;25.50;99.90
10848;DHT22;5477;48.806;9.154;2023-06-10T09:29:07;25.60;99.90
10848;DHT22;5477;48.806;9.154;2023-06-10T09:31:39;25.60;99.90
10848;DHT22;5477;48.806;9.154;2023-06-10T09:34:09;25.70;99.80
10848;DHT22;5477;48.806;9.154;2023-06-10T09:36:38;25.80;99.50
10848;DHT22;5477;48.806;9.154;2023-06-10T09:39:13;25.90;98.80
10848;DHT22;5477;48.806;9.154;2023-06-10T09:41:43;25.80;98.90
10848;DHT22;5477;48.806;9.154;2023-06-10T09:44:12;25.80;98.80
10848;DHT22;5477;48.806;9.154;2023-06-10T09:46:43;26.00;98.80
10848;DHT22;5477;48.806;9.154;2023-06-10T09:49:13;26.20;98.20
10848;DHT22;5477;48.806;9.154;2023-06-10T09:51:49;26.10;98.00
10848;DHT22;5477;48.806;9.154;2023-06-10T09:54:18;26.00;98.10
10848;DHT22;5477;48.806;9.154;2023-06-10T09:56:47;26.00;98.60
10848;DHT22;5477;48.806;9.154;2023-06-10T09:59:15;26.10;98.30
10848;DHT22;5477;48.806;9.154;2023-06-10T10:01:54;26.20;97.80
10848;DHT22;5477;48.806;9.154;2023-06-10T10:04:23;26.00;97.70
10848;DHT22;5477;48.806;9.154;2023-06-10T10:06:51;26.20;97.40
10848;DHT22;5477;48.806;9.154;2023-06-10T10:09:21;26.50;97.20
10848;DHT22;5477;48.806;9.154;2023-06-10T10:11:49;26.80;96.80
10848;DHT22;5477;48.806;9.154;2023-06-10T10:14:20;26.90;95.40
10848;DHT22;5477;48.806;9.154;2023-06-10T10:16:50;26.80;95.00
10848;DHT22;5477;48.806;9.154;2023-06-10T10:19:25;26.90;94.70
10848;DHT22;5477;48.806;9.154;2023-06-10T10:22:01;26.90;94.70
10848;DHT22;5477;48.806;9.154;2023-06-10T10:24:34;26.90;94.20
10848;DHT22;5477;48.806;9.154;2023-06-10T10:27:07;26.80;93.90
10848;DHT22;5477;48.806;9.154;2023-06-10T10:29:39;26.60;94.00
10848;DHT22;5477;48.806;9.154;2023-06-10T10:32:10;26.60;94.30
10848;DHT22;5477;48.806;9.154;2023-06-10T10:34:50;26.90;94.50
10848;DHT22;5477;48.806;9.154;2023-06-10T10:37:21;27.10;94.60
10848;DHT22;5477;48.806;9.154;2023-06-10T10:39:49;27.10;94.10
10848;DHT22;5477;48.806;9.154;2023-06-10T10:42:18;26.90;94.20
10848;DHT22;5477;48.806;9.154;2023-06-10T10:44:46;26.60;94.80
10848;DHT22;5477;48.806;9.154;2023-06-10T10:47:19;26.60;94.60
10848;DHT22;5477;48.806;9.154;2023-06-10T10:49:51;26.90;94.60
10848;DHT22;5477;48.806;9.154;2023-06-10T10:52:20;27.20;93.80
10848;DHT22;5477;48.806;9.154;2023-06-10T10:54:48;27.50;93.40
10848;DHT22;5477;48.806;9.154;2023-06-10T10:57:17;27.90;92.30
10848;DHT22;5477;48.806;9.154;2023-06-10T10:59:56;28.10;91.40
10848;DHT22;5477;48.806;9.154;2023-06-10T11:02:36;28.60;90.80
10848;DHT22;5477;48.806;9.154;2023-06-10T11:05:07;28.50;90.10
10848;DHT22;5477;48.806;9.154;2023-06-10T11:07:36;28.50;89.90
10848;DHT22;5477;48.806;9.154;2023-06-10T11:10:07;28.80;90.10
10848;DHT22;5477;48.806;9.154;2023-06-10T11:12:51;29.10;88.10
10848;DHT22;5477;48.806;9.154;2023-06-10T11:15:24;29.30;85.80
10848;DHT22;5477;48.806;9.154;2023-06-10T11:18:14;29.60;84.30
10848;DHT22;5477;48.806;9.154;2023-06-10T11:20:52;30.00;82.60
10848;DHT22;5477;48.806;9.154;2023-06-10T11:23:41;29.90;81.00
10848;DHT22;5477;48.806;9.154;2023-06-10T11:26:15;29.60;81.50
10848;DHT22;5477;48.806;9.154;2023-06-10T11:29:08;29.30;81.70
10848;DHT22;5477;48.806;9.154;2023-06-10T11:31:45;29.40;80.20
10848;DHT22;5477;48.806;9.154;2023-06-10T11:34:21;29.30;79.90
10848;DHT22;5477;48.806;9.154;2023-06-10T11:36:51;29.40;79.60
10848;DHT22;5477;48.806;9.154;2023-06-10T11:39:21;29.60;79.40
10848;DHT22;5477;48.806;9.154;2023-06-10T11:41:50;29.80;78.80
10848;DHT22;5477;48.806;9.154;2023-06-10T11:44:19;30.00;77.40
10848;DHT22;5477;48.806;9.154;2023-06-10T11:46:48;29.70;76.50
10848;DHT22;5477;48.806;9.154;2023-06-10T11:49:20;29.80;76.20
10848;DHT22;5477;48.806;9.154;2023-06-10T11:51:48;30.00;75.20
10848;DHT22;5477;48.806;9.154;2023-06-10T11:54:18;30.30;75.00
10848;DHT22;5477;48.806;9.154;2023-06-10T11:56:46;30.40;74.10
10848;DHT22;5477;48.806;9.154;2023-06-10T11:59:15;30.30;74.50
10848;DHT22;5477;48.806;9.154;2023-06-10T12:01:44;30.40;72.90
10848;DHT22;5477;48.806;9.154;2023-06-10T12:04:15;30.10;71.90
10848;DHT22;5477;48.806;9.154;2023-06-10T12:06:47;29.80;71.90
10848;DHT22;5477;48.806;9.154;2023-06-10T12:09:18;29.70;71.30
10848;DHT22;5477;48.806;9.154;2023-06-10T12:11:55;29.60;72.20
10848;DHT22;5477;48.806;9.154;2023-06-10T12:14:53;29.80;72.50
10848;DHT22;5477;48.806;9.154;2023-06-10T12:17:23;30.20;71.00
10848;DHT22;5477;48.806;9.154;2023-06-10T12:19:51;30.50;70.10
10848;DHT22;5477;48.806;9.154;2023-06-10T12:22:21;30.90;68.90
10848;DHT22;5477;48.806;9.154;2023-06-10T12:25:00;31.50;67.20
10848;DHT22;5477;48.806;9.154;2023-06-10T12:27:29;32.30;66.10
10848;DHT22;5477;48.806;9.154;2023-06-10T12:29:59;32.70;63.70
10848;DHT22;5477;48.806;9.154;2023-06-10T12:32:37;33.10;61.60
10848;DHT22;5477;48.806;9.154;2023-06-10T12:35:07;33.00;60.20
10848;DHT22;5477;48.806;9.154;2023-06-10T12:37:37;32.80;60.00
10848;DHT22;5477;48.806;9.154;2023-06-10T12:40:09;32.70;59.00
10848;DHT22;5477;48.806;9.154;2023-06-10T12:42:38;31.90;61.00
10848;DHT22;5477;48.806;9.154;2023-06-10T12:45:07;31.00;63.10
10848;DHT22;5477;48.806;9.154;2023-06-10T12:47:37;30.30;64.50
10848;DHT22;5477;48.806;9.154;2023-06-10T12:50:07;29.70;65.70
10848;DHT22;5477;48.806;9.154;2023-06-10T12:52:37;29.40;66.60
10848;DHT22;5477;48.806;9.154;2023-06-10T12:55:06;29.30;67.10
10848;DHT22;5477;48.806;9.154;2023-06-10T12:57:34;29.30;67.40
10848;DHT22;5477;48.806;9.154;2023-06-10T13:00:03;29.70;65.90
10848;DHT22;5477;48.806;9.154;2023-06-10T13:02:35;30.30;64.90
10848;DHT22;5477;48.806;9.154;2023-06-10T13:05:03;30.60;62.70
10848;DHT22;5477;48.806;9.154;2023-06-10T13:07:32;30.70;63.30
10848;DHT22;5477;48.806;9.154;2023-06-10T13:10:01;30.80;62.90
10848;DHT22;5477;48.806;9.154;2023-06-10T13:12:29;30.00;63.90
10848;DHT22;5477;48.806;9.154;2023-06-10T13:15:13;29.60;65.30
10848;DHT22;5477;48.806;9.154;2023-06-10T13:17:42;29.30;66.60
10848;DHT22;5477;48.806;9.154;2023-06-10T13:20:10;29.00;66.90
10848;DHT22;5477;48.806;9.154;2023-06-10T13:22:38;28.80;67.60
10848;DHT22;5477;48.806;9.154;2023-06-10T13:25:09;28.80;67.40
10848;DHT22;5477;48.806;9.154;2023-06-10T13:27:38;29.10;67.40
10848;DHT22;5477;48.806;9.154;2023-06-10T13:30:07;30.20;65.30
10848;DHT22;5477;48.806;9.154;2023-06-10T13:32:36;31.30;62.70
10848;DHT22;5477;48.806;9.154;2023-06-10T13:35:05;32.00;59.90
10848;DHT22;5477;48.806;9.154;2023-06-10T13:37:34;32.80;58.90
10848;DHT22;5477;48.806;9.154;2023-06-10T13:40:03;33.60;56.70
10848;DHT22;5477;48.806;9.154;2023-06-10T13:42:33;34.60;55.30
10848;DHT22;5477;48.806;9.154;2023-06-10T13:45:03;35.20;53.80
10848;DHT22;5477;48.806;9.154;2023-06-10T13:47:31;34.60;53.10
10848;DHT22;5477;48.806;9.154;2023-06-10T13:49:59;33.40;53.90
10848;DHT22;5477;48.806;9.154;2023-06-10T13:52:27;32.00;55.70
10848;DHT22;5477;48.806;9.154;2023-06-10T13:54:55;31.20;57.30
10848;DHT22;5477;48.806;9.154;2023-06-10T13:57:23;30.70;58.40
10848;DHT22;5477;48.806;9.154;2023-06-10T13:59:52;30.10;59.70
10848;DHT22;5477;48.806;9.154;2023-06-10T14:02:22;29.90;60.60
10848;DHT22;5477;48.806;9.154;2023-06-10T14:04:50;29.80;60.90
10848;DHT22;5477;48.806;9.154;2023-06-10T14:07:18;30.20;60.40
10848;DHT22;5477;48.806;9.154;2023-06-10T14:09:46;31.00;59.40
10848;DHT22;5477;48.806;9.154;2023-06-10T14:12:14;31.90;58.10
10848;DHT22;5477;48.806;9.154;2023-06-10T14:14:43;32.90;56.70
10848;DHT22;5477;48.806;9.154;2023-06-10T14:17:12;33.80;55.20
10848;DHT22;5477;48.806;9.154;2023-06-10T14:19:40;34.50;53.50
10848;DHT22;5477;48.806;9.154;2023-06-10T14:22:08;34.80;52.90
10848;DHT22;5477;48.806;9.154;2023-06-10T14:24:36;35.20;51.90
10848;DHT22;5477;48.806;9.154;2023-06-10T14:27:05;35.20;51.30
10848;DHT22;5477;48.806;9.154;2023-06-10T14:29:34;34.70;51.60
10848;DHT22;5477;48.806;9.154;2023-06-10T14:32:02;34.20;51.80
10848;DHT22;5477;48.806;9.154;2023-06-10T14:34:36;33.80;51.90
10848;DHT22;5477;48.806;9.154;2023-06-10T14:37:05;32.90;53.40
10848;DHT22;5477;48.806;9.154;2023-06-10T14:39:34;32.20;54.50
10848;DHT22;5477;48.806;9.154;2023-06-10T14:42:03;31.40;56.20
10848;DHT22;5477;48.806;9.154;2023-06-10T14:44:32;31.00;57.10
10848;DHT22;5477;48.806;9.154;2023-06-10T14:47:00;30.40;57.50
10848;DHT22;5477;48.806;9.154;2023-06-10T14:49:28;30.50;58.00
10848;DHT22;5477;48.806;9.154;2023-06-10T14:51:57;31.30;57.70
10848;DHT22;5477;48.806;9.154;2023-06-10T14:54:25;32.00;56.70
10848;DHT22;5477;48.806;9.154;2023-06-10T14:56:54;32.00;56.10
10848;DHT22;5477;48.806;9.154;2023-06-10T14:59:22;31.40;56.30
10848;DHT22;5477;48.806;9.154;2023-06-10T15:01:50;30.90;57.10
10848;DHT22;5477;48.806;9.154;2023-06-10T15:04:18;30.80;57.10
10848;DHT22;5477;48.806;9.154;2023-06-10T15:06:50;31.20;56.60
10848;DHT22;5477;48.806;9.154;2023-06-10T15:09:19;31.90;56.00
10848;DHT22;5477;48.806;9.154;2023-06-10T15:11:47;32.70;55.60
10848;DHT22;5477;48.806;9.154;2023-06-10T15:14:15;32.70;55.60
10848;DHT22;5477;48.806;9.154;2023-06-10T15:16:43;32.80;55.90
10848;DHT22;5477;48.806;9.154;2023-06-10T15:19:12;32.20;56.00
10848;DHT22;5477;48.806;9.154;2023-06-10T15:21:40;31.30;57.00
10848;DHT22;5477;48.806;9.154;2023-06-10T15:24:08;30.90;58.50
10848;DHT22;5477;48.806;9.154;2023-06-10T15:26:38;31.30;57.80
10848;DHT22;5477;48.806;9.154;2023-06-10T15:29:06;31.70;56.20
10848;DHT22;5477;48.806;9.154;2023-06-10T15:31:34;32.20;55.40
10848;DHT22;5477;48.806;9.154;2023-06-10T15:34:02;32.90;54.30
10848;DHT22;5477;48.806;9.154;2023-06-10T15:36:31;33.20;53.20
10848;DHT22;5477;48.806;9.154;2023-06-10T15:39:02;33.60;53.10
10848;DHT22;5477;48.806;9.154;2023-06-10T15:41:30;34.30;52.00
10848;DHT22;5477;48.806;9.154;2023-06-10T15:44:00;34.80;51.00
10848;DHT22;5477;48.806;9.154;2023-06-10T15:46:29;34.80;51.00
10848;DHT22;5477;48.806;9.154;2023-06-10T15:48:57;34.80;51.00
10848;DHT22;5477;48.806;9.154;2023-06-10T15:51:25;34.90;51.00
10848;DHT22;5477;48.806;9.154;2023-06-10T15:53:54;35.80;50.50
10848;DHT22;5477;48.806;9.154;2023-06-10T15:56:22;36.10;49.60
10848;DHT22;5477;48.806;9.154;2023-06-10T15:58:50;35.10;50.30
10848;DHT22;5477;48.806;9.154;2023-06-10T16:01:19;34.30;51.00